sensor_id;sensor_type;location;lat;lon;timestamp;P1;durP1;ratioP1;P2;durP2;ratioP2
17251;SDS011;8742;51.716;8.790;2022-10-16T00:01:05;6.30;;;2.50;;
17251;SDS011;8742;51.716;8.790;2022-10-16T00:03:34;6.43;;;2.70;;
17251;SDS011;8742;51.716;8.790;2022-10-16T00:06:01;9.10;;;2.60;;
17251;SDS011;8742;51.716;8.790;2022-10-16T00:08:28;5.57;;;2.87;;
17251;SDS011;8742;51.716;8.790;2022-10-16T00:10:59;10.33;;;2.70;;
17251;SDS011;8742;51.716;8.790;2022-10-16T00:13:28;6.03;;;2.97;;
17251;SDS011;8742;51.716;8.790;2022-10-16T00:16:09;7.43;;;2.97;;
17251;SDS011;8742;51.716;8.790;2022-10-16T00:18:39;5.73;;;3.20;;
17251;SDS011;8742;51.716;8.790;2022-10-16T00:21:06;8.17;;;2.73;;
17251;SDS011;8742;51.716;8.790;2022-10-16T00:23:36;4.17;;;2.90;;
17251;SDS011;8742;51.716;8.790;2022-10-16T00:26:04;6.27;;;3.00;;
17251;SDS011;8742;51.716;8.790;2022-10-16T00:28:33;8.87;;;3.00;;
17251;SDS011;8742;51.716;8.790;2022-10-16T00:31:02;8.80;;;3.33;;
17251;SDS011;8742;51.716;8.790;2022-10-16T00:33:30;6.23;;;3.10;;
17251;SDS011;8742;51.716;8.790;2022-10-16T00:35:57;7.77;;;3.30;;
17251;SDS011;8742;51.716;8.790;2022-10-16T00:38:24;5.63;;;3.37;;
17251;SDS011;8742;51.716;8.790;2022-10-16T00:40:51;7.23;;;3.00;;
17251;SDS011;8742;51.716;8.790;2022-10-16T00:43:32;5.33;;;3.20;;
17251;SDS011;8742;51.716;8.790;2022-10-16T00:46:02;9.43;;;3.47;;
17251;SDS011;8742;51.716;8.790;2022-10-16T00:48:31;5.93;;;2.83;;
17251;SDS011;8742;51.716;8.790;2022-10-16T00:50:58;7.07;;;2.87;;
17251;SDS011;8742;51.716;8.790;2022-10-16T00:53:25;8.63;;;3.33;;
17251;SDS011;8742;51.716;8.790;2022-10-16T00:55:54;5.50;;;3.27;;
17251;SDS011;8742;51.716;8.790;2022-10-16T00:58:21;7.47;;;3.20;;
17251;SDS011;8742;51.716;8.790;2022-10-16T01:00:49;5.90;;;3.40;;
17251;SDS011;8742;51.716;8.790;2022-10-16T01:03:23;8.37;;;3.20;;
17251;SDS011;8742;51.716;8.790;2022-10-16T01:05:54;5.90;;;2.73;;
17251;SDS011;8742;51.716;8.790;2022-10-16T01:08:34;5.43;;;2.60;;
17251;SDS011;8742;51.716;8.790;2022-10-16T01:11:14;6.77;;;3.37;;
17251;SDS011;8742;51.716;8.790;2022-10-16T01:13:48;7.37;;;3.37;;
17251;SDS011;8742;51.716;8.790;2022-10-16T01:16:22;3.10;;;2.43;;
17251;SDS011;8742;51.716;8.790;2022-10-16T01:18:57;3.37;;;2.93;;
17251;SDS011;8742;51.716;8.790;2022-10-16T01:21:32;4.87;;;2.70;;
17251;SDS011;8742;51.716;8.790;2022-10-16T01:24:03;7.27;;;2.70;;
17251;SDS011;8742;51.716;8.790;2022-10-16T01:26:42;4.57;;;2.97;;
17251;SDS011;8742;51.716;8.790;2022-10-16T01:29:20;4.33;;;2.90;;
17251;SDS011;8742;51.716;8.790;2022-10-16T01:31:53;7.93;;;2.87;;
17251;SDS011;8742;51.716;8.790;2022-10-16T01:34:25;3.23;;;2.67;;
17251;SDS011;8742;51.716;8.790;2022-10-16T01:37:00;4.93;;;2.97;;
17251;SDS011;8742;51.716;8.790;2022-10-16T01:39:34;6.20;;;2.93;;
17251;SDS011;8742;51.716;8.790;2022-10-16T01:42:07;7.03;;;2.80;;
17251;SDS011;8742;51.716;8.790;2022-10-16T01:44:41;4.90;;;2.60;;
17251;SDS011;8742;51.716;8.790;2022-10-16T01:47:09;4.67;;;2.87;;
17251;SDS011;8742;51.716;8.790;2022-10-16T01:49:39;8.47;;;3.00;;
17251;SDS011;8742;51.716;8.790;2022-10-16T01:52:07;3.53;;;2.47;;
17251;SDS011;8742;51.716;8.790;2022-10-16T01:54:39;8.30;;;2.60;;
17251;SDS011;8742;51.716;8.790;2022-10-16T01:57:08;3.50;;;2.47;;
17251;SDS011;8742;51.716;8.790;2022-10-16T01:59:40;5.20;;;2.50;;
17251;SDS011;8742;51.716;8.790;2022-10-16T02:02:10;3.70;;;2.43;;
17251;SDS011;8742;51.716;8.790;2022-10-16T02:04:39;4.23;;;2.50;;
17251;SDS011;8742;51.716;8.790;2022-10-16T02:07:11;3.33;;;2.57;;
17251;SDS011;8742;51.716;8.790;2022-10-16T02:09:38;4.60;;;2.43;;
17251;SDS011;8742;51.716;8.790;2022-10-16T02:12:07;2.90;;;2.30;;
17251;SDS011;8742;51.716;8.790;2022-10-16T02:14:38;4.07;;;2.50;;
17251;SDS011;8742;51.716;8.790;2022-10-16T02:17:11;4.03;;;2.50;;
17251;SDS011;8742;51.716;8.790;2022-10-16T02:19:39;4.07;;;2.10;;
17251;SDS011;8742;51.716;8.790;2022-10-16T02:22:08;5.80;;;2.30;;
17251;SDS011;8742;51.716;8.790;2022-10-16T02:24:41;4.73;;;2.13;;
17251;SDS011;8742;51.716;8.790;2022-10-16T02:27:15;2.03;;;1.87;;
17251;SDS011;8742;51.716;8.790;2022-10-16T02:29:47;5.73;;;2.53;;
17251;SDS011;8742;51.716;8.790;2022-10-16T02:32:23;3.30;;;2.20;;
17251;SDS011;8742;51.716;8.790;2022-10-16T02:34:53;3.27;;;2.10;;
17251;SDS011;8742;51.716;8.790;2022-10-16T02:37:21;3.27;;;2.30;;
17251;SDS011;8742;51.716;8.790;2022-10-16T02:39:48;5.57;;;2.37;;
17251;SDS011;8742;51.716;8.790;2022-10-16T02:42:17;5.20;;;2.17;;
17251;SDS011;8742;51.716;8.790;2022-10-16T02:44:44;2.47;;;1.80;;
17251;SDS011;8742;51.716;8.790;2022-10-16T02:47:12;2.70;;;1.83;;
17251;SDS011;8742;51.716;8.790;2022-10-16T02:49:39;3.00;;;2.10;;
17251;SDS011;8742;51.716;8.790;2022-10-16T02:52:06;3.50;;;1.77;;
17251;SDS011;8742;51.716;8.790;2022-10-16T02:54:32;3.17;;;1.67;;
17251;SDS011;8742;51.716;8.790;2022-10-16T02:56:59;8.47;;;2.03;;
17251;SDS011;8742;51.716;8.790;2022-10-16T02:59:26;3.30;;;1.87;;
17251;SDS011;8742;51.716;8.790;2022-10-16T03:01:53;2.93;;;1.53;;
17251;SDS011;8742;51.716;8.790;2022-10-16T03:04:21;2.33;;;1.77;;
17251;SDS011;8742;51.716;8.790;2022-10-16T03:06:48;4.27;;;2.10;;
17251;SDS011;8742;51.716;8.790;2022-10-16T03:09:15;4.63;;;1.67;;
17251;SDS011;8742;51.716;8.790;2022-10-16T03:11:42;2.97;;;1.80;;
17251;SDS011;8742;51.716;8.790;2022-10-16T03:14:08;3.73;;;1.90;;
17251;SDS011;8742;51.716;8.790;2022-10-16T03:16:35;3.33;;;1.60;;
17251;SDS011;8742;51.716;8.790;2022-10-16T03:19:02;1.67;;;1.57;;
17251;SDS011;8742;51.716;8.790;2022-10-16T03:21:30;3.93;;;1.50;;
17251;SDS011;8742;51.716;8.790;2022-10-16T03:23:57;4.20;;;1.40;;
17251;SDS011;8742;51.716;8.790;2022-10-16T03:26:24;4.53;;;1.30;;
17251;SDS011;8742;51.716;8.790;2022-10-16T03:28:51;6.90;;;1.63;;
17251;SDS011;8742;51.716;8.790;2022-10-16T03:31:28;1.67;;;1.03;;
17251;SDS011;8742;51.716;8.790;2022-10-16T03:33:55;3.10;;;1.77;;
17251;SDS011;8742;51.716;8.790;2022-10-16T03:36:22;1.40;;;1.30;;
17251;SDS011;8742;51.716;8.790;2022-10-16T03:38:50;1.60;;;1.50;;
17251;SDS011;8742;51.716;8.790;2022-10-16T03:41:17;2.33;;;1.20;;
17251;SDS011;8742;51.716;8.790;2022-10-16T03:43:44;2.33;;;1.43;;
17251;SDS011;8742;51.716;8.790;2022-10-16T03:46:11;1.43;;;1.20;;
17251;SDS011;8742;51.716;8.790;2022-10-16T03:48:37;3.63;;;1.73;;
17251;SDS011;8742;51.716;8.790;2022-10-16T03:51:05;1.77;;;1.40;;
17251;SDS011;8742;51.716;8.790;2022-10-16T03:53:32;5.27;;;1.67;;
17251;SDS011;8742;51.716;8.790;2022-10-16T03:56:00;2.40;;;1.53;;
17251;SDS011;8742;51.716;8.790;2022-10-16T03:58:27;2.53;;;1.87;;
17251;SDS011;8742;51.716;8.790;2022-10-16T04:00:54;2.50;;;1.30;;
17251;SDS011;8742;51.716;8.790;2022-10-16T04:03:21;3.60;;;1.63;;
17251;SDS011;8742;51.716;8.790;2022-10-16T04:05:48;1.80;;;1.43;;
17251;SDS011;8742;51.716;8.790;2022-10-16T04:08:15;4.90;;;1.53;;
17251;SDS011;8742;51.716;8.790;2022-10-16T04:10:43;1.33;;;1.20;;
17251;SDS011;8742;51.716;8.790;2022-10-16T04:13:11;2.03;;;1.30;;
17251;SDS011;8742;51.716;8.790;2022-10-16T04:15:40;3.10;;;1.73;;
17251;SDS011;8742;51.716;8.790;2022-10-16T04:18:10;2.17;;;1.27;;
17251;SDS011;8742;51.716;8.790;2022-10-16T04:20:37;1.33;;;1.23;;
17251;SDS011;8742;51.716;8.790;2022-10-16T04:23:04;3.23;;;1.50;;
17251;SDS011;8742;51.716;8.790;2022-10-16T04:25:31;2.20;;;1.43;;
17251;SDS011;8742;51.716;8.790;2022-10-16T04:27:57;2.00;;;1.63;;
17251;SDS011;8742;51.716;8.790;2022-10-16T04:30:26;2.03;;;1.10;;
17251;SDS011;8742;51.716;8.790;2022-10-16T04:32:52;1.60;;;1.13;;
17251;SDS011;8742;51.716;8.790;2022-10-16T04:35:20;2.07;;;1.00;;
17251;SDS011;8742;51.716;8.790;2022-10-16T04:37:47;2.73;;;1.20;;
17251;SDS011;8742;51.716;8.790;2022-10-16T04:40:15;6.23;;;1.13;;
17251;SDS011;8742;51.716;8.790;2022-10-16T04:42:42;1.73;;;1.17;;
17251;SDS011;8742;51.716;8.790;2022-10-16T04:45:09;2.63;;;1.33;;
17251;SDS011;8742;51.716;8.790;2022-10-16T04:47:37;1.30;;;1.20;;
17251;SDS011;8742;51.716;8.790;2022-10-16T04:50:04;1.20;;;1.10;;
17251;SDS011;8742;51.716;8.790;2022-10-16T04:52:32;1.00;;;0.87;;
17251;SDS011;8742;51.716;8.790;2022-10-16T04:54:59;2.50;;;1.20;;
17251;SDS011;8742;51.716;8.790;2022-10-16T04:57:27;2.30;;;1.10;;
17251;SDS011;8742;51.716;8.790;2022-10-16T04:59:55;1.00;;;1.00;;
17251;SDS011;8742;51.716;8.790;2022-10-16T05:02:22;2.33;;;1.23;;
17251;SDS011;8742;51.716;8.790;2022-10-16T05:04:52;1.37;;;1.10;;
17251;SDS011;8742;51.716;8.790;2022-10-16T05:07:19;3.63;;;1.17;;
17251;SDS011;8742;51.716;8.790;2022-10-16T05:09:46;1.13;;;1.00;;
17251;SDS011;8742;51.716;8.790;2022-10-16T05:12:13;1.37;;;1.17;;
17251;SDS011;8742;51.716;8.790;2022-10-16T05:14:40;1.60;;;1.17;;
17251;SDS011;8742;51.716;8.790;2022-10-16T05:17:07;5.07;;;1.00;;
17251;SDS011;8742;51.716;8.790;2022-10-16T05:19:33;1.30;;;1.10;;
17251;SDS011;8742;51.716;8.790;2022-10-16T05:22:02;1.60;;;1.13;;
17251;SDS011;8742;51.716;8.790;2022-10-16T05:24:28;1.50;;;1.10;;
17251;SDS011;8742;51.716;8.790;2022-10-16T05:26:55;2.93;;;1.30;;
17251;SDS011;8742;51.716;8.790;2022-10-16T05:29:22;2.03;;;1.47;;
17251;SDS011;8742;51.716;8.790;2022-10-16T05:31:50;4.63;;;0.90;;
17251;SDS011;8742;51.716;8.790;2022-10-16T05:34:17;1.43;;;0.97;;
17251;SDS011;8742;51.716;8.790;2022-10-16T05:36:44;3.47;;;1.37;;
17251;SDS011;8742;51.716;8.790;2022-10-16T05:39:13;2.13;;;1.03;;
17251;SDS011;8742;51.716;8.790;2022-10-16T05:41:40;4.00;;;1.20;;
17251;SDS011;8742;51.716;8.790;2022-10-16T05:44:07;9.63;;;1.07;;
17251;SDS011;8742;51.716;8.790;2022-10-16T05:46:34;1.30;;;1.17;;
17251;SDS011;8742;51.716;8.790;2022-10-16T05:49:01;1.60;;;0.90;;
17251;SDS011;8742;51.716;8.790;2022-10-16T05:51:28;2.60;;;1.00;;
17251;SDS011;8742;51.716;8.790;2022-10-16T05:53:55;1.20;;;1.10;;
17251;SDS011;8742;51.716;8.790;2022-10-16T05:56:23;4.07;;;1.20;;
17251;SDS011;8742;51.716;8.790;2022-10-16T05:58:52;1.53;;;1.33;;
17251;SDS011;8742;51.716;8.790;2022-10-16T06:01:18;1.17;;;0.80;;
17251;SDS011;8742;51.716;8.790;2022-10-16T06:03:49;2.87;;;0.87;;
17251;SDS011;8742;51.716;8.790;2022-10-16T06:06:16;3.10;;;1.00;;
17251;SDS011;8742;51.716;8.790;2022-10-16T06:08:45;1.13;;;0.90;;
17251;SDS011;8742;51.716;8.790;2022-10-16T06:11:13;0.87;;;0.70;;
17251;SDS011;8742;51.716;8.790;2022-10-16T06:13:42;1.03;;;0.93;;
17251;SDS011;8742;51.716;8.790;2022-10-16T06:16:11;0.80;;;0.80;;
17251;SDS011;8742;51.716;8.790;2022-10-16T06:18:38;1.80;;;1.00;;
17251;SDS011;8742;51.716;8.790;2022-10-16T06:21:06;1.67;;;0.90;;
17251;SDS011;8742;51.716;8.790;2022-10-16T06:23:34;1.27;;;1.17;;
17251;SDS011;8742;51.716;8.790;2022-10-16T06:26:05;0.87;;;0.87;;
17251;SDS011;8742;51.716;8.790;2022-10-16T06:28:33;1.27;;;1.17;;
17251;SDS011;8742;51.716;8.790;2022-10-16T06:31:06;1.10;;;0.97;;
17251;SDS011;8742;51.716;8.790;2022-10-16T06:33:40;5.23;;;1.00;;
17251;SDS011;8742;51.716;8.790;2022-10-16T06:36:10;1.50;;;0.93;;
17251;SDS011;8742;51.716;8.790;2022-10-16T06:38:38;0.67;;;0.67;;
17251;SDS011;8742;51.716;8.790;2022-10-16T06:41:07;4.77;;;0.87;;
17251;SDS011;8742;51.716;8.790;2022-10-16T06:43:35;4.37;;;1.20;;
17251;SDS011;8742;51.716;8.790;2022-10-16T06:46:04;3.03;;;1.10;;
17251;SDS011;8742;51.716;8.790;2022-10-16T06:48:33;0.60;;;0.60;;
17251;SDS011;8742;51.716;8.790;2022-10-16T06:51:01;4.10;;;1.00;;
17251;SDS011;8742;51.716;8.790;2022-10-16T06:53:30;1.93;;;1.10;;
17251;SDS011;8742;51.716;8.790;2022-10-16T06:56:01;1.70;;;1.00;;
17251;SDS011;8742;51.716;8.790;2022-10-16T06:58:42;1.67;;;1.10;;
17251;SDS011;8742;51.716;8.790;2022-10-16T07:01:11;1.90;;;0.93;;
17251;SDS011;8742;51.716;8.790;2022-10-16T07:03:39;1.97;;;1.00;;
17251;SDS011;8742;51.716;8.790;2022-10-16T07:06:08;1.30;;;0.90;;
17251;SDS011;8742;51.716;8.790;2022-10-16T07:08:37;5.70;;;1.13;;
17251;SDS011;8742;51.716;8.790;2022-10-16T07:11:06;1.40;;;0.90;;
17251;SDS011;8742;51.716;8.790;2022-10-16T07:13:34;1.10;;;0.93;;
17251;SDS011;8742;51.716;8.790;2022-10-16T07:16:05;1.00;;;1.00;;
17251;SDS011;8742;51.716;8.790;2022-10-16T07:18:34;4.50;;;1.00;;
17251;SDS011;8742;51.716;8.790;2022-10-16T07:21:08;6.27;;;1.20;;
17251;SDS011;8742;51.716;8.790;2022-10-16T07:23:51;3.13;;;1.20;;
17251;SDS011;8742;51.716;8.790;2022-10-16T07:26:18;1.10;;;0.97;;
17251;SDS011;8742;51.716;8.790;2022-10-16T07:28:45;7.27;;;1.00;;
17251;SDS011;8742;51.716;8.790;2022-10-16T07:31:13;3.67;;;1.07;;
17251;SDS011;8742;51.716;8.790;2022-10-16T07:33:44;1.93;;;1.00;;
17251;SDS011;8742;51.716;8.790;2022-10-16T07:36:13;0.93;;;0.70;;
17251;SDS011;8742;51.716;8.790;2022-10-16T07:38:40;1.03;;;1.00;;
17251;SDS011;8742;51.716;8.790;2022-10-16T07:41:09;1.20;;;1.10;;
17251;SDS011;8742;51.716;8.790;2022-10-16T07:43:37;0.70;;;0.70;;
17251;SDS011;8742;51.716;8.790;2022-10-16T07:46:04;2.53;;;1.33;;
17251;SDS011;8742;51.716;8.790;2022-10-16T07:48:32;1.20;;;1.10;;
17251;SDS011;8742;51.716;8.790;2022-10-16T07:51:07;1.77;;;1.00;;
17251;SDS011;8742;51.716;8.790;2022-10-16T07:53:50;1.33;;;1.00;;
17251;SDS011;8742;51.716;8.790;2022-10-16T07:56:21;1.70;;;1.03;;
17251;SDS011;8742;51.716;8.790;2022-10-16T07:58:49;1.13;;;1.03;;
17251;SDS011;8742;51.716;8.790;2022-10-16T08:01:17;0.70;;;0.70;;
17251;SDS011;8742;51.716;8.790;2022-10-16T08:03:45;2.20;;;0.90;;
17251;SDS011;8742;51.716;8.790;2022-10-16T08:06:15;3.13;;;1.00;;
17251;SDS011;8742;51.716;8.790;2022-10-16T08:08:42;1.03;;;0.90;;
17251;SDS011;8742;51.716;8.790;2022-10-16T08:11:10;1.10;;;0.90;;
17251;SDS011;8742;51.716;8.790;2022-10-16T08:13:37;3.07;;;1.00;;
17251;SDS011;8742;51.716;8.790;2022-10-16T08:16:04;3.60;;;1.03;;
17251;SDS011;8742;51.716;8.790;2022-10-16T08:18:33;2.60;;;0.70;;
17251;SDS011;8742;51.716;8.790;2022-10-16T08:21:02;1.07;;;0.70;;
17251;SDS011;8742;51.716;8.790;2022-10-16T08:26:12;1.37;;;0.83;;
17251;SDS011;8742;51.716;8.790;2022-10-16T08:28:39;1.57;;;1.13;;
17251;SDS011;8742;51.716;8.790;2022-10-16T08:31:07;1.57;;;0.77;;
17251;SDS011;8742;51.716;8.790;2022-10-16T08:33:38;1.10;;;0.80;;
17251;SDS011;8742;51.716;8.790;2022-10-16T08:36:08;1.13;;;0.90;;
17251;SDS011;8742;51.716;8.790;2022-10-16T08:38:36;1.40;;;0.93;;
17251;SDS011;8742;51.716;8.790;2022-10-16T08:47:17;2.07;;;0.70;;
17251;SDS011;8742;51.716;8.790;2022-10-16T08:50:08;1.67;;;0.70;;
17251;SDS011;8742;51.716;8.790;2022-10-16T08:52:39;1.27;;;0.67;;
17251;SDS011;8742;51.716;8.790;2022-10-16T08:55:09;1.17;;;0.70;;
17251;SDS011;8742;51.716;8.790;2022-10-16T08:57:49;0.97;;;0.80;;
17251;SDS011;8742;51.716;8.790;2022-10-16T09:00:17;4.07;;;0.83;;
17251;SDS011;8742;51.716;8.790;2022-10-16T09:02:46;1.37;;;0.77;;
17251;SDS011;8742;51.716;8.790;2022-10-16T09:05:34;4.00;;;0.80;;
17251;SDS011;8742;51.716;8.790;2022-10-16T09:08:39;1.70;;;0.93;;
17251;SDS011;8742;51.716;8.790;2022-10-16T09:11:12;2.70;;;1.30;;
17251;SDS011;8742;51.716;8.790;2022-10-16T09:13:58;9.83;;;1.00;;
17251;SDS011;8742;51.716;8.790;2022-10-16T09:16:34;0.80;;;0.80;;
17251;SDS011;8742;51.716;8.790;2022-10-16T09:19:09;4.33;;;0.93;;
17251;SDS011;8742;51.716;8.790;2022-10-16T09:21:42;2.77;;;0.90;;
17251;SDS011;8742;51.716;8.790;2022-10-16T09:24:13;5.40;;;1.13;;
17251;SDS011;8742;51.716;8.790;2022-10-16T09:26:41;1.70;;;1.13;;
17251;SDS011;8742;51.716;8.790;2022-10-16T09:29:09;2.10;;;0.97;;
17251;SDS011;8742;51.716;8.790;2022-10-16T09:31:39;3.20;;;1.20;;
17251;SDS011;8742;51.716;8.790;2022-10-16T09:34:12;1.43;;;1.00;;
17251;SDS011;8742;51.716;8.790;2022-10-16T09:36:52;2.60;;;1.10;;
17251;SDS011;8742;51.716;8.790;2022-10-16T09:39:20;1.47;;;0.83;;
17251;SDS011;8742;51.716;8.790;2022-10-16T09:41:46;1.50;;;0.90;;
17251;SDS011;8742;51.716;8.790;2022-10-16T09:44:17;1.07;;;0.80;;
17251;SDS011;8742;51.716;8.790;2022-10-16T09:47:00;3.17;;;1.30;;
17251;SDS011;8742;51.716;8.790;2022-10-16T09:49:27;2.33;;;1.27;;
17251;SDS011;8742;51.716;8.790;2022-10-16T09:52:02;1.07;;;0.93;;
17251;SDS011;8742;51.716;8.790;2022-10-16T09:54:50;1.33;;;1.23;;
17251;SDS011;8742;51.716;8.790;2022-10-16T09:57:18;3.17;;;1.23;;
17251;SDS011;8742;51.716;8.790;2022-10-16T09:59:46;1.33;;;1.23;;
17251;SDS011;8742;51.716;8.790;2022-10-16T10:02:16;0.90;;;0.83;;
17251;SDS011;8742;51.716;8.790;2022-10-16T10:04:47;2.20;;;1.23;;
17251;SDS011;8742;51.716;8.790;2022-10-16T10:07:17;2.33;;;1.10;;
17251;SDS011;8742;51.716;8.790;2022-10-16T10:09:46;1.77;;;1.27;;
17251;SDS011;8742;51.716;8.790;2022-10-16T10:12:17;1.33;;;1.20;;
17251;SDS011;8742;51.716;8.790;2022-10-16T10:15:03;1.40;;;1.07;;
17251;SDS011;8742;51.716;8.790;2022-10-16T10:17:44;2.97;;;1.03;;
17251;SDS011;8742;51.716;8.790;2022-10-16T10:20:21;1.20;;;0.93;;
17251;SDS011;8742;51.716;8.790;2022-10-16T10:22:50;2.33;;;1.00;;
17251;SDS011;8742;51.716;8.790;2022-10-16T10:25:31;2.27;;;1.00;;
17251;SDS011;8742;51.716;8.790;2022-10-16T10:28:18;1.07;;;0.80;;
17251;SDS011;8742;51.716;8.790;2022-10-16T10:30:55;2.70;;;1.00;;
17251;SDS011;8742;51.716;8.790;2022-10-16T10:33:30;1.63;;;0.93;;
17251;SDS011;8742;51.716;8.790;2022-10-16T10:36:08;0.87;;;0.80;;
17251;SDS011;8742;51.716;8.790;2022-10-16T10:38:54;3.20;;;0.87;;
17251;SDS011;8742;51.716;8.790;2022-10-16T10:41:32;3.40;;;1.40;;
17251;SDS011;8742;51.716;8.790;2022-10-16T10:44:30;1.70;;;0.90;;
17251;SDS011;8742;51.716;8.790;2022-10-16T10:47:12;2.40;;;1.13;;
17251;SDS011;8742;51.716;8.790;2022-10-16T10:49:51;2.13;;;1.13;;
17251;SDS011;8742;51.716;8.790;2022-10-16T10:52:34;4.20;;;0.90;;
17251;SDS011;8742;51.716;8.790;2022-10-16T10:55:16;2.43;;;0.80;;
17251;SDS011;8742;51.716;8.790;2022-10-16T10:58:04;0.83;;;0.70;;
17251;SDS011;8742;51.716;8.790;2022-10-16T11:00:55;1.60;;;0.90;;
17251;SDS011;8742;51.716;8.790;2022-10-16T11:03:31;0.70;;;0.70;;
17251;SDS011;8742;51.716;8.790;2022-10-16T11:06:11;2.50;;;0.90;;
17251;SDS011;8742;51.716;8.790;2022-10-16T11:08:50;1.98;;;0.77;;
17251;SDS011;8742;51.716;8.790;2022-10-16T11:11:20;2.10;;;0.80;;
17251;SDS011;8742;51.716;8.790;2022-10-16T11:13:53;1.42;;;0.90;;
17251;SDS011;8742;51.716;8.790;2022-10-16T11:16:23;1.92;;;0.70;;
17251;SDS011;8742;51.716;8.790;2022-10-16T11:18:55;1.98;;;0.82;;
17251;SDS011;8742;51.716;8.790;2022-10-16T11:21:27;2.80;;;0.90;;
17251;SDS011;8742;51.716;8.790;2022-10-16T11:24:04;0.75;;;0.73;;
17251;SDS011;8742;51.716;8.790;2022-10-16T11:26:46;3.30;;;0.90;;
17251;SDS011;8742;51.716;8.790;2022-10-16T11:29:25;2.58;;;0.68;;
17251;SDS011;8742;51.716;8.790;2022-10-16T11:31:57;4.05;;;1.00;;
17251;SDS011;8742;51.716;8.790;2022-10-16T11:34:28;1.42;;;0.82;;
17251;SDS011;8742;51.716;8.790;2022-10-16T11:37:01;0.75;;;0.70;;
17251;SDS011;8742;51.716;8.790;2022-10-16T11:39:31;0.50;;;0.50;;
17251;SDS011;8742;51.716;8.790;2022-10-16T11:42:01;0.85;;;0.40;;
17251;SDS011;8742;51.716;8.790;2022-10-16T11:44:45;1.17;;;0.80;;
17251;SDS011;8742;51.716;8.790;2022-10-16T11:47:26;1.55;;;0.65;;
17251;SDS011;8742;51.716;8.790;2022-10-16T11:49:58;1.15;;;0.70;;
17251;SDS011;8742;51.716;8.790;2022-10-16T11:52:30;2.35;;;0.60;;
17251;SDS011;8742;51.716;8.790;2022-10-16T11:55:05;0.88;;;0.50;;
17251;SDS011;8742;51.716;8.790;2022-10-16T11:57:42;0.93;;;0.52;;
17251;SDS011;8742;51.716;8.790;2022-10-16T12:00:15;0.60;;;0.50;;
17251;SDS011;8742;51.716;8.790;2022-10-16T12:02:50;2.00;;;0.60;;
17251;SDS011;8742;51.716;8.790;2022-10-16T12:05:24;0.55;;;0.50;;
17251;SDS011;8742;51.716;8.790;2022-10-16T12:08:06;1.35;;;0.80;;
17251;SDS011;8742;51.716;8.790;2022-10-16T12:10:36;2.60;;;1.02;;
17251;SDS011;8742;51.716;8.790;2022-10-16T12:13:03;0.93;;;0.70;;
17251;SDS011;8742;51.716;8.790;2022-10-16T12:15:31;2.15;;;0.68;;
17251;SDS011;8742;51.716;8.790;2022-10-16T12:18:00;3.90;;;0.60;;
17251;SDS011;8742;51.716;8.790;2022-10-16T12:20:29;1.73;;;0.70;;
17251;SDS011;8742;51.716;8.790;2022-10-16T12:22:59;0.57;;;0.57;;
17251;SDS011;8742;51.716;8.790;2022-10-16T12:25:29;3.60;;;0.70;;
17251;SDS011;8742;51.716;8.790;2022-10-16T12:28:02;2.17;;;0.70;;
17251;SDS011;8742;51.716;8.790;2022-10-16T12:30:32;1.45;;;0.75;;
17251;SDS011;8742;51.716;8.790;2022-10-16T12:33:01;3.03;;;0.50;;
17251;SDS011;8742;51.716;8.790;2022-10-16T12:35:31;2.05;;;0.50;;
17251;SDS011;8742;51.716;8.790;2022-10-16T12:38:06;1.52;;;0.68;;
17251;SDS011;8742;51.716;8.790;2022-10-16T12:40:40;2.78;;;0.50;;
17251;SDS011;8742;51.716;8.790;2022-10-16T12:43:12;1.33;;;0.70;;
17251;SDS011;8742;51.716;8.790;2022-10-16T12:46:00;0.50;;;0.43;;
17251;SDS011;8742;51.716;8.790;2022-10-16T12:48:29;2.35;;;0.47;;
17251;SDS011;8742;51.716;8.790;2022-10-16T12:50:56;1.00;;;0.65;;
17251;SDS011;8742;51.716;8.790;2022-10-16T12:53:24;0.63;;;0.50;;
17251;SDS011;8742;51.716;8.790;2022-10-16T12:56:00;1.92;;;0.80;;
17251;SDS011;8742;51.716;8.790;2022-10-16T12:58:37;1.08;;;0.80;;
17251;SDS011;8742;51.716;8.790;2022-10-16T13:01:20;10.35;;;1.10;;
17251;SDS011;8742;51.716;8.790;2022-10-16T13:04:02;2.30;;;1.00;;
17251;SDS011;8742;51.716;8.790;2022-10-16T13:06:42;1.17;;;0.88;;
17251;SDS011;8742;51.716;8.790;2022-10-16T13:09:20;0.70;;;0.68;;
17251;SDS011;8742;51.716;8.790;2022-10-16T13:12:01;0.90;;;0.70;;
17251;SDS011;8742;51.716;8.790;2022-10-16T13:14:51;5.57;;;0.80;;
17251;SDS011;8742;51.716;8.790;2022-10-16T13:17:35;0.63;;;0.63;;
17251;SDS011;8742;51.716;8.790;2022-10-16T13:20:12;1.38;;;0.73;;
17251;SDS011;8742;51.716;8.790;2022-10-16T13:22:48;3.58;;;0.90;;
17251;SDS011;8742;51.716;8.790;2022-10-16T13:25:26;3.28;;;1.00;;
17251;SDS011;8742;51.716;8.790;2022-10-16T13:28:01;3.45;;;0.70;;
17251;SDS011;8742;51.716;8.790;2022-10-16T13:30:30;1.20;;;0.63;;
17251;SDS011;8742;51.716;8.790;2022-10-16T13:33:01;2.92;;;0.65;;
17251;SDS011;8742;51.716;8.790;2022-10-16T13:35:31;2.05;;;0.75;;
17251;SDS011;8742;51.716;8.790;2022-10-16T13:38:08;2.10;;;0.98;;
17251;SDS011;8742;51.716;8.790;2022-10-16T13:43:25;2.33;;;0.75;;
17251;SDS011;8742;51.716;8.790;2022-10-16T13:45:55;0.60;;;0.52;;
17251;SDS011;8742;51.716;8.790;2022-10-16T13:48:23;2.53;;;0.88;;
17251;SDS011;8742;51.716;8.790;2022-10-16T13:51:04;3.78;;;0.90;;
17251;SDS011;8742;51.716;8.790;2022-10-16T13:53:33;1.38;;;0.90;;
17251;SDS011;8742;51.716;8.790;2022-10-16T13:56:04;1.67;;;0.82;;
17251;SDS011;8742;51.716;8.790;2022-10-16T13:58:34;1.70;;;1.27;;
17251;SDS011;8742;51.716;8.790;2022-10-16T14:01:02;4.43;;;0.70;;
17251;SDS011;8742;51.716;8.790;2022-10-16T14:03:31;6.13;;;0.80;;
17251;SDS011;8742;51.716;8.790;2022-10-16T14:06:01;0.88;;;0.57;;
17251;SDS011;8742;51.716;8.790;2022-10-16T14:08:29;5.78;;;1.10;;
17251;SDS011;8742;51.716;8.790;2022-10-16T14:10:57;4.07;;;1.02;;
17251;SDS011;8742;51.716;8.790;2022-10-16T14:13:29;2.92;;;0.80;;
17251;SDS011;8742;51.716;8.790;2022-10-16T14:16:02;2.92;;;0.70;;
17251;SDS011;8742;51.716;8.790;2022-10-16T14:18:33;1.25;;;0.60;;
17251;SDS011;8742;51.716;8.790;2022-10-16T14:21:04;2.20;;;1.00;;
17251;SDS011;8742;51.716;8.790;2022-10-16T14:23:32;1.60;;;0.80;;
17251;SDS011;8742;51.716;8.790;2022-10-16T14:26:06;1.23;;;0.70;;
17251;SDS011;8742;51.716;8.790;2022-10-16T14:28:40;1.58;;;0.70;;
17251;SDS011;8742;51.716;8.790;2022-10-16T14:31:25;3.03;;;0.68;;
17251;SDS011;8742;51.716;8.790;2022-10-16T14:33:53;1.98;;;0.80;;
17251;SDS011;8742;51.716;8.790;2022-10-16T14:36:20;1.25;;;0.60;;
17251;SDS011;8742;51.716;8.790;2022-10-16T14:38:49;2.83;;;0.95;;
17251;SDS011;8742;51.716;8.790;2022-10-16T14:41:23;1.65;;;0.80;;
17251;SDS011;8742;51.716;8.790;2022-10-16T14:43:51;1.92;;;0.70;;
17251;SDS011;8742;51.716;8.790;2022-10-16T14:46:21;1.83;;;0.57;;
17251;SDS011;8742;51.716;8.790;2022-10-16T14:48:57;1.30;;;0.63;;
17251;SDS011;8742;51.716;8.790;2022-10-16T14:51:28;0.47;;;0.47;;
17251;SDS011;8742;51.716;8.790;2022-10-16T14:53:55;2.25;;;1.05;;
17251;SDS011;8742;51.716;8.790;2022-10-16T14:56:23;4.85;;;1.15;;
17251;SDS011;8742;51.716;8.790;2022-10-16T14:58:52;1.73;;;0.63;;
17251;SDS011;8742;51.716;8.790;2022-10-16T15:01:19;0.82;;;0.50;;
17251;SDS011;8742;51.716;8.790;2022-10-16T15:03:47;3.30;;;0.80;;
17251;SDS011;8742;51.716;8.790;2022-10-16T15:06:15;2.15;;;1.08;;
17251;SDS011;8742;51.716;8.790;2022-10-16T15:08:42;3.10;;;0.95;;
17251;SDS011;8742;51.716;8.790;2022-10-16T15:11:09;3.22;;;0.80;;
17251;SDS011;8742;51.716;8.790;2022-10-16T15:13:39;5.55;;;1.10;;
17251;SDS011;8742;51.716;8.790;2022-10-16T15:16:07;4.00;;;0.90;;
17251;SDS011;8742;51.716;8.790;2022-10-16T15:18:36;2.35;;;0.90;;
17251;SDS011;8742;51.716;8.790;2022-10-16T15:21:03;3.60;;;0.95;;
17251;SDS011;8742;51.716;8.790;2022-10-16T15:23:32;3.72;;;1.30;;
17251;SDS011;8742;51.716;8.790;2022-10-16T15:25:59;3.60;;;0.82;;
17251;SDS011;8742;51.716;8.790;2022-10-16T15:28:26;1.75;;;0.90;;
17251;SDS011;8742;51.716;8.790;2022-10-16T15:30:53;0.80;;;0.70;;
17251;SDS011;8742;51.716;8.790;2022-10-16T15:33:22;3.45;;;1.17;;
17251;SDS011;8742;51.716;8.790;2022-10-16T15:35:52;2.58;;;0.93;;